Arpin, Wisconsin
Current Conditions -  °F | °C
As of 10:54 AM on Friday 31 Oct 2014 (Local Time) from KMFI Reporting Station
Overcast Overcast  
Wind Chill: 22°   Ceiling: 3400
Heat Index: 33°   Visibility: 10mi
Dew Point: 21°   Wind: 17mph
Humidity: 61%   Direction: 20°NNE
Pressure: 30.39"   Gusts: 26mph
Location:  44.54°N, 90.04°W
Report Text: KMFI 311554Z AUTO 02015G23KT 10SM OVC034 01/M06 A3039 RMK AO2 PK WND 35027/1516 SLP308 T00061061
Loading
Personal Weather Stations






























Interactive Weather Map New forecast layout! Learn more

10-Day Weather Forecast

Advertisements
Track Severe Weather on mobile